Time,TemperatureF,DewpointF,PressureIn,WindDirection,WindDirectionDegrees,WindSpeedMPH,WindSpeedGustMPH,Humidity,HourlyPrecipIn,Conditions,Clouds,dailyrainin,SolarRadiationWatts/m^2,SoftwareType,DateUTC
2017-05-23 00:03:00,52.5,50.4,-100.00,South,186,0.0,0.0,92,0.00,,,0.00,0.00,Weather logger V3.0.,2017-05-23 04:03:00,
2017-05-23 00:08:00,52.5,50.4,-100.00,South,178,0.0,0.0,92,0.00,,,0.00,0.00,Weather logger V3.0.,2017-05-23 04:08:00,
2017-05-23 00:14:00,52.3,50.4,-100.00,South,169,0.0,0.0,93,0.00,,,0.00,0.00,Weather logger V3.0.,2017-05-23 04:14:00,
2017-05-23 00:19:00,52.3,50.4,30.05,SSW,204,0.0,0.0,93,0.00,,,0.00,0.00,Weather logger V3.0.,2017-05-23 04:19:00,
2017-05-23 00:24:00,52.3,50.4,30.05,South,173,0.0,0.0,93,0.00,,,0.00,0.00,Weather logger V3.0.,2017-05-23 04:24:00,
2017-05-23 00:30:00,52.3,50.4,30.04,SSE,164,0.0,0.0,93,0.00,,,0.00,0.00,Weather logger V3.0.,2017-05-23 04:30:00,
2017-05-23 00:35:00,52.3,50.7,30.04,SSE,167,0.0,0.0,94,0.00,,,0.00,0.00,Weather logger V3.0.,2017-05-23 04:35:00,
2017-05-23 00:40:00,52.2,50.5,-100.00,South,184,0.0,0.0,94,0.00,,,0.00,0.00,Weather logger V3.0.,2017-05-23 04:40:00,
2017-05-23 00:46:00,52.2,50.5,30.03,SSE,166,0.0,0.0,94,0.00,,,0.00,0.00,Weather logger V3.0.,2017-05-23 04:46:00,
2017-05-23 00:51:00,52.2,50.5,30.04,South,171,0.0,0.0,94,0.00,,,0.00,0.00,Weather logger V3.0.,2017-05-23 04:51:00,
2017-05-23 00:56:00,52.2,50.7,30.04,South,178,0.0,0.0,95,0.00,,,0.00,0.00,Weather logger V3.0.,2017-05-23 04:56:00,
2017-05-23 01:02:00,52.0,50.5,30.04,SSE,162,0.0,0.0,95,0.00,,,0.00,0.00,Weather logger V3.0.,2017-05-23 05:02:00,
2017-05-23 01:07:00,52.0,50.9,30.04,SSE,161,0.0,0.0,96,0.00,,,0.00,0.00,Weather logger V3.0.,2017-05-23 05:07:00,
2017-05-23 01:12:00,52.0,50.5,30.03,South,188,0.0,0.0,95,0.00,,,0.00,0.00,Weather logger V3.0.,2017-05-23 05:12:00,
2017-05-23 01:18:00,52.0,50.5,30.03,SSE,163,0.0,0.0,95,0.00,,,0.00,0.00,Weather logger V3.0.,2017-05-23 05:18:00,
2017-05-23 01:23:00,52.0,50.9,30.03,SSE,165,0.0,0.0,96,0.00,,,0.00,0.00,Weather logger V3.0.,2017-05-23 05:23:00,
2017-05-23 01:28:00,51.8,50.7,30.03,SSW,192,0.0,0.0,96,0.00,,,0.00,0.00,Weather logger V3.0.,2017-05-23 05:28:00,
2017-05-23 01:34:00,51.8,50.7,30.03,South,172,0.0,0.0,96,0.00,,,0.00,0.00,Weather logger V3.0.,2017-05-23 05:34:00,
2017-05-23 01:39:00,51.8,50.7,30.03,SSE,167,0.0,0.0,96,0.00,,,0.00,0.00,Weather logger V3.0.,2017-05-23 05:39:00,
2017-05-23 01:45:00,51.8,50.7,30.03,SSE,163,0.0,0.0,96,0.00,,,0.00,0.00,Weather logger V3.0.,2017-05-23 05:45:00,
2017-05-23 01:50:00,51.8,50.7,-100.00,SSE,165,0.0,0.0,96,0.00,,,0.00,0.00,Weather logger V3.0.,2017-05-23 05:50:00,
2017-05-23 01:55:00,51.8,51.1,30.03,South,172,0.0,0.0,97,0.00,,,0.00,0.00,Weather logger V3.0.,2017-05-23 05:55:00,
2017-05-23 02:01:00,51.8,51.1,30.03,South,170,0.0,0.0,97,0.00,,,0.00,0.00,Weather logger V3.0.,2017-05-23 06:01:00,
2017-05-23 02:06:00,51.8,51.3,30.02,South,171,0.0,0.0,98,0.00,,,0.00,0.00,Weather logger V3.0.,2017-05-23 06:06:00,
2017-05-23 02:11:00,51.8,51.1,30.02,SSE,163,0.0,0.0,97,0.00,,,0.00,0.00,Weather logger V3.0.,2017-05-23 06:11:00,
2017-05-23 02:17:00,51.8,51.3,-100.00,South,169,0.0,0.0,98,0.00,,,0.00,0.00,Weather logger V3.0.,2017-05-23 06:17:00,
2017-05-23 02:22:00,51.8,51.1,-100.00,South,176,0.0,0.0,97,0.00,,,0.00,0.00,Weather logger V3.0.,2017-05-23 06:22:00,
2017-05-23 02:27:00,51.8,51.3,-100.00,SSE,152,0.0,0.0,98,0.00,,,0.00,0.00,Weather logger V3.0.,2017-05-23 06:27:00,
2017-05-23 02:33:00,51.6,51.1,-100.00,South,174,0.0,0.0,98,0.00,,,0.00,0.00,Weather logger V3.0.,2017-05-23 06:33:00,
2017-05-23 02:38:00,51.6,51.1,-100.00,South,174,0.0,0.0,98,0.00,,,0.00,0.00,Weather logger V3.0.,2017-05-23 06:38:00,
2017-05-23 02:43:00,51.6,51.1,-100.00,South,172,0.0,0.0,98,0.00,,,0.00,0.00,Weather logger V3.0.,2017-05-23 06:43:00,
2017-05-23 02:49:00,51.6,51.4,30.00,SSE,162,0.0,0.0,99,0.00,,,0.00,0.00,Weather logger V3.0.,2017-05-23 06:49:00,
2017-05-23 02:54:00,51.4,51.3,30.00,SSE,167,0.0,0.0,99,0.00,,,0.00,0.00,Weather logger V3.0.,2017-05-23 06:54:00,
2017-05-23 02:59:00,51.4,51.3,30.00,South,190,0.0,0.0,99,0.00,,,0.00,0.00,Weather logger V3.0.,2017-05-23 06:59:00,
2017-05-23 03:05:00,51.3,51.1,30.00,South,174,0.0,0.0,99,0.00,,,0.00,0.00,Weather logger V3.0.,2017-05-23 07:05:00,
2017-05-23 03:10:00,51.3,51.1,29.99,SSE,166,0.0,0.0,99,0.00,,,0.00,0.00,Weather logger V3.0.,2017-05-23 07:10:00,
2017-05-23 03:15:00,51.3,51.1,-100.00,SSE,160,0.0,0.0,99,0.00,,,0.00,0.00,Weather logger V3.0.,2017-05-23 07:15:00,
2017-05-23 03:21:00,51.1,50.9,29.99,SSE,163,0.0,0.0,99,0.00,,,0.00,0.00,Weather logger V3.0.,2017-05-23 07:21:00,
2017-05-23 03:26:00,51.1,50.9,29.99,SSE,163,0.0,0.0,99,0.00,,,0.00,0.00,Weather logger V3.0.,2017-05-23 07:26:00,
2017-05-23 03:31:00,50.9,50.7,29.99,SSE,164,0.0,0.0,99,0.00,,,0.00,0.00,Weather logger V3.0.,2017-05-23 07:31:00,
2017-05-23 03:37:00,50.9,50.7,29.99,South,185,0.0,0.0,99,0.00,,,0.00,0.00,Weather logger V3.0.,2017-05-23 07:37:00,
2017-05-23 03:42:00,50.9,50.7,29.99,South,184,0.0,0.0,99,0.00,,,0.00,0.00,Weather logger V3.0.,2017-05-23 07:42:00,
2017-05-23 03:47:00,50.7,50.5,-100.00,SSW,197,0.0,0.0,99,0.00,,,0.00,0.00,Weather logger V3.0.,2017-05-23 07:47:00,
2017-05-23 03:53:00,50.7,50.5,-100.00,SSE,159,0.0,0.0,99,0.00,,,0.00,0.00,Weather logger V3.0.,2017-05-23 07:53:00,
2017-05-23 03:58:00,50.7,50.5,29.98,SSE,156,0.0,0.0,99,0.00,,,0.00,0.00,Weather logger V3.0.,2017-05-23 07:58:00,
2017-05-23 04:03:00,50.7,50.5,29.98,SSE,163,0.0,0.0,99,0.00,,,0.00,0.00,Weather logger V3.0.,2017-05-23 08:03:00,
2017-05-23 04:09:00,50.7,50.5,-100.00,SSE,161,0.0,0.0,99,0.00,,,0.00,0.00,Weather logger V3.0.,2017-05-23 08:09:00,
2017-05-23 04:14:00,50.7,50.5,29.97,SSE,165,0.0,0.0,99,0.00,,,0.00,0.00,Weather logger V3.0.,2017-05-23 08:14:00,
2017-05-23 04:18:00,50.9,50.7,29.97,SSE,150,0.0,0.0,99,0.00,,,0.00,0.00,Weather logger V3.0.,2017-05-23 08:18:00,
2017-05-23 04:24:00,50.9,50.7,29.97,SSE,163,0.0,0.0,99,0.00,,,0.00,0.00,Weather logger V3.0.,2017-05-23 08:24:00,
2017-05-23 04:29:00,50.9,50.7,29.97,South,171,0.0,0.0,99,0.00,,,0.00,0.00,Weather logger V3.0.,2017-05-23 08:29:00,
2017-05-23 04:34:00,50.9,50.7,29.97,SSE,162,0.0,0.0,99,0.00,,,0.00,0.00,Weather logger V3.0.,2017-05-23 08:34:00,
2017-05-23 04:40:00,50.9,50.7,29.96,SSE,164,0.0,0.0,99,0.00,,,0.00,0.00,Weather logger V3.0.,2017-05-23 08:40:00,
2017-05-23 04:45:00,50.9,50.7,29.97,SSE,163,0.0,0.0,99,0.00,,,0.00,0.00,Weather logger V3.0.,2017-05-23 08:45:00,
2017-05-23 04:51:00,50.9,50.7,29.97,SSE,163,0.0,0.0,99,0.00,,,0.00,0.00,Weather logger V3.0.,2017-05-23 08:51:00,
2017-05-23 04:56:00,50.9,50.7,29.95,SSE,154,0.0,0.0,99,0.00,,,0.00,0.00,Weather logger V3.0.,2017-05-23 08:56:00,
2017-05-23 05:02:00,50.9,50.7,29.96,SSE,156,0.0,0.0,99,0.00,,,0.00,0.00,Weather logger V3.0.,2017-05-23 09:02:00,
2017-05-23 05:07:00,50.9,50.7,29.96,SW,219,0.0,0.0,99,0.00,,,0.00,0.00,Weather logger V3.0.,2017-05-23 09:07:00,
2017-05-23 05:12:00,50.7,50.5,29.96,South,185,0.0,0.0,99,0.00,,,0.00,0.00,Weather logger V3.0.,2017-05-23 09:12:00,
2017-05-23 05:18:00,50.7,50.5,29.96,SSE,168,0.0,0.0,99,0.00,,,0.00,0.00,Weather logger V3.0.,2017-05-23 09:18:00,
2017-05-23 05:23:00,50.7,50.5,29.96,SSW,197,0.0,0.0,99,0.00,,,0.00,0.00,Weather logger V3.0.,2017-05-23 09:23:00,
2017-05-23 05:28:00,50.5,50.4,29.95,SSE,163,0.0,0.0,99,0.00,,,0.00,0.00,Weather logger V3.0.,2017-05-23 09:28:00,
2017-05-23 05:34:00,50.5,50.4,29.95,South,186,0.0,0.0,99,0.00,,,0.00,0.00,Weather logger V3.0.,2017-05-23 09:34:00,
2017-05-23 05:39:00,50.4,50.2,-100.00,SSE,162,0.0,0.0,99,0.00,,,0.00,0.00,Weather logger V3.0.,2017-05-23 09:39:00,
2017-05-23 05:44:00,50.4,50.2,-100.00,SSE,168,0.0,0.0,99,0.00,,,0.00,0.00,Weather logger V3.0.,2017-05-23 09:44:00,
2017-05-23 05:50:00,50.2,50.0,29.95,SE,138,0.0,0.0,99,0.00,,,0.00,0.00,Weather logger V3.0.,2017-05-23 09:50:00,
2017-05-23 05:55:00,50.2,50.0,29.95,SSE,163,0.0,0.0,99,0.00,,,0.00,0.00,Weather logger V3.0.,2017-05-23 09:55:00,
2017-05-23 06:00:00,50.0,49.8,29.95,SW,220,0.0,0.0,99,0.00,,,0.00,0.00,Weather logger V3.0.,2017-05-23 10:00:00,
2017-05-23 06:06:00,49.8,49.6,29.95,SSW,204,0.0,0.0,99,0.00,,,0.00,0.00,Weather logger V3.0.,2017-05-23 10:06:00,
2017-05-23 06:11:00,49.6,49.5,29.95,SSW,209,0.0,0.0,99,0.00,,,0.00,0.00,Weather logger V3.0.,2017-05-23 10:11:00,
2017-05-23 06:16:00,49.6,49.5,29.95,SSE,163,0.0,0.0,99,0.00,,,0.00,0.00,Weather logger V3.0.,2017-05-23 10:16:00,
2017-05-23 06:22:00,49.5,49.3,29.95,SSE,164,0.0,0.0,99,0.00,,,0.00,1.69,Weather logger V3.0.,2017-05-23 10:22:00,
2017-05-23 06:27:00,49.3,49.1,29.96,South,170,0.0,0.0,99,0.00,,,0.00,4.56,Weather logger V3.0.,2017-05-23 10:27:00,
2017-05-23 06:32:00,49.3,49.1,29.96,SW,217,0.0,0.0,99,0.00,,,0.00,7.33,Weather logger V3.0.,2017-05-23 10:32:00,
2017-05-23 06:38:00,49.1,48.9,29.95,South,186,0.0,0.0,99,0.00,,,0.00,12.07,Weather logger V3.0.,2017-05-23 10:38:00,
2017-05-23 06:43:00,49.1,48.9,29.95,SSE,165,0.0,0.0,99,0.00,,,0.00,16.36,Weather logger V3.0.,2017-05-23 10:43:00,
2017-05-23 06:48:00,49.1,48.9,29.96,SSE,163,0.0,0.0,99,0.00,,,0.00,21.62,Weather logger V3.0.,2017-05-23 10:48:00,
2017-05-23 06:54:00,49.1,48.9,29.96,SE,142,0.0,0.0,99,0.00,,,0.00,24.43,Weather logger V3.0.,2017-05-23 10:54:00,
2017-05-23 06:59:00,49.1,48.9,29.97,South,187,0.0,0.0,99,0.00,,,0.00,27.25,Weather logger V3.0.,2017-05-23 10:59:00,
2017-05-23 07:04:00,49.3,49.1,29.95,SSW,192,0.0,0.0,99,0.00,,,0.00,31.15,Weather logger V3.0.,2017-05-23 11:04:00,
2017-05-23 07:09:00,49.5,49.3,29.96,SSE,157,0.0,0.0,99,0.00,,,0.00,36.00,Weather logger V3.0.,2017-05-23 11:09:00,
2017-05-23 07:14:00,49.8,49.6,29.96,SE,140,0.0,0.0,99,0.00,,,0.00,41.78,Weather logger V3.0.,2017-05-23 11:14:00,
2017-05-23 07:19:00,50.0,49.8,29.96,NNE,30,0.0,0.0,99,0.00,,,0.00,49.28,Weather logger V3.0.,2017-05-23 11:19:00,
2017-05-23 07:24:00,50.4,50.2,29.96,SE,125,0.0,0.0,99,0.00,,,0.00,61.57,Weather logger V3.0.,2017-05-23 11:24:00,
2017-05-23 07:29:00,50.7,50.2,29.96,ESE,122,0.0,0.0,98,0.00,,,0.00,71.11,Weather logger V3.0.,2017-05-23 11:29:00,
2017-05-23 07:34:00,51.1,50.5,29.96,ENE,78,0.0,0.0,98,0.00,,,0.00,75.12,Weather logger V3.0.,2017-05-23 11:34:00,
2017-05-23 07:39:00,51.6,51.1,29.95,NE,38,0.0,0.0,98,0.00,,,0.00,74.44,Weather logger V3.0.,2017-05-23 11:39:00,
2017-05-23 07:44:00,52.2,51.6,29.95,ESE,115,0.0,0.0,98,0.00,,,0.00,94.28,Weather logger V3.0.,2017-05-23 11:44:00,
2017-05-23 07:49:00,52.5,52.0,29.95,NNE,21,0.0,0.0,98,0.00,,,0.00,89.97,Weather logger V3.0.,2017-05-23 11:49:00,
2017-05-23 07:54:00,52.9,52.3,-100.00,ESE,117,0.0,0.0,98,0.00,,,0.00,105.11,Weather logger V3.0.,2017-05-23 11:54:00,
2017-05-23 07:59:00,53.2,52.5,29.95,SE,130,0.0,0.0,97,0.00,,,0.00,92.43,Weather logger V3.0.,2017-05-23 11:59:00,
2017-05-23 08:04:00,53.4,52.7,29.95,NE,48,0.0,0.0,97,0.00,,,0.00,89.60,Weather logger V3.0.,2017-05-23 12:04:00,
2017-05-23 08:10:00,53.6,52.9,29.94,ENE,68,0.0,0.0,97,0.00,,,0.00,82.09,Weather logger V3.0.,2017-05-23 12:10:00,
2017-05-23 08:15:00,53.8,53.1,29.94,NNE,25,0.0,0.0,97,0.00,,,0.00,85.99,Weather logger V3.0.,2017-05-23 12:15:00,
2017-05-23 08:20:00,54.1,53.4,29.93,NNE,33,0.0,0.0,97,0.00,,,0.00,125.30,Weather logger V3.0.,2017-05-23 12:20:00,
2017-05-23 08:25:00,54.3,53.6,29.93,ENE,71,0.0,0.0,97,0.00,,,0.00,132.20,Weather logger V3.0.,2017-05-23 12:25:00,
2017-05-23 08:30:00,54.5,54.3,29.93,NNE,30,0.0,0.0,99,0.00,,,0.00,169.96,Weather logger V3.0.,2017-05-23 12:30:00,
2017-05-23 08:35:00,54.9,54.3,29.93,SE,140,0.0,0.0,98,0.00,,,0.00,179.19,Weather logger V3.0.,2017-05-23 12:35:00,
2017-05-23 08:40:00,55.2,54.1,29.93,ESE,108,0.0,0.0,96,0.00,,,0.00,190.15,Weather logger V3.0.,2017-05-23 12:40:00,
2017-05-23 08:42:00,55.4,54.0,29.93,ESE,116,0.0,0.0,95,0.00,,,0.00,233.24,Weather logger V3.0.,2017-05-23 12:42:00,
2017-05-23 08:47:00,55.9,53.1,29.93,NE,50,0.0,0.0,90,0.00,,,0.00,240.59,Weather logger V3.0.,2017-05-23 12:47:00,
2017-05-23 08:52:00,56.7,52.0,29.92,SE,144,0.0,0.0,84,0.00,,,0.00,281.76,Weather logger V3.0.,2017-05-23 12:52:00,
2017-05-23 08:57:00,57.6,51.8,29.92,SE,137,1.8,2.5,81,0.00,,,0.00,273.51,Weather logger V3.0.,2017-05-23 12:57:00,
2017-05-23 09:02:00,58.5,50.9,29.92,SE,130,0.2,2.5,76,0.00,,,0.00,349.76,Weather logger V3.0.,2017-05-23 13:02:00,
2017-05-23 09:07:00,59.5,50.5,29.92,NE,39,2.9,4.9,72,0.00,,,0.00,351.40,Weather logger V3.0.,2017-05-23 13:07:00,
2017-05-23 09:14:00,60.4,51.1,29.92,North,8,1.1,2.5,71,0.00,,,0.00,360.97,Weather logger V3.0.,2017-05-23 13:14:00,
2017-05-23 09:19:00,61.0,51.1,29.92,SE,137,0.0,0.0,70,0.00,,,0.00,363.51,Weather logger V3.0.,2017-05-23 13:19:00,
2017-05-23 09:24:00,61.7,51.1,29.92,North,356,1.3,2.5,68,0.00,,,0.00,367.61,Weather logger V3.0.,2017-05-23 13:24:00,
2017-05-23 09:29:00,62.2,50.7,29.91,NNE,27,0.4,2.5,66,0.00,,,0.00,384.07,Weather logger V3.0.,2017-05-23 13:29:00,
2017-05-23 09:34:00,63.1,49.1,29.91,ESE,105,0.0,0.0,60,0.00,,,0.00,389.20,Weather logger V3.0.,2017-05-23 13:34:00,
2017-05-23 09:39:00,64.2,48.2,29.91,East,82,1.3,2.5,56,0.00,,,0.00,391.75,Weather logger V3.0.,2017-05-23 13:39:00,
2017-05-23 09:44:00,65.1,48.6,29.90,East,81,2.5,4.9,55,0.00,,,0.00,404.18,Weather logger V3.0.,2017-05-23 13:44:00,
2017-05-23 09:49:00,66.2,49.6,29.90,NE,49,0.2,2.5,55,0.00,,,0.00,398.44,Weather logger V3.0.,2017-05-23 13:49:00,
2017-05-23 09:54:00,67.1,50.0,29.90,SE,128,0.2,2.5,54,0.00,,,0.00,323.58,Weather logger V3.0.,2017-05-23 13:54:00,
2017-05-23 09:59:00,67.6,50.4,29.89,ESE,119,0.0,0.0,54,0.00,,,0.00,352.10,Weather logger V3.0.,2017-05-23 13:59:00,
2017-05-23 10:04:00,68.0,50.4,29.89,SSE,150,0.0,0.0,53,0.00,,,0.00,398.77,Weather logger V3.0.,2017-05-23 14:04:00,
2017-05-23 10:09:00,68.0,50.7,29.90,ESE,106,0.4,2.5,54,0.00,,,0.00,445.35,Weather logger V3.0.,2017-05-23 14:09:00,
2017-05-23 10:14:00,68.0,50.4,29.90,East,91,1.8,2.5,53,0.00,,,0.00,432.99,Weather logger V3.0.,2017-05-23 14:14:00,
2017-05-23 10:19:00,68.4,50.5,29.90,SE,138,2.9,4.9,53,0.00,,,0.00,233.86,Weather logger V3.0.,2017-05-23 14:19:00,
2017-05-23 10:24:00,68.4,50.5,29.89,ESE,120,0.0,0.0,53,0.00,,,0.00,231.89,Weather logger V3.0.,2017-05-23 14:24:00,
2017-05-23 10:30:00,68.4,51.1,29.89,NE,47,1.3,2.5,54,0.00,,,0.00,236.98,Weather logger V3.0.,2017-05-23 14:30:00,
2017-05-23 10:35:00,68.4,50.2,29.89,ESE,114,0.2,2.5,52,0.00,,,0.00,180.38,Weather logger V3.0.,2017-05-23 14:35:00,
2017-05-23 10:40:00,68.2,50.9,29.90,SSE,152,0.0,0.0,54,0.00,,,0.00,172.71,Weather logger V3.0.,2017-05-23 14:40:00,
2017-05-23 10:45:00,68.2,51.4,29.89,SE,141,0.0,0.0,55,0.00,,,0.00,210.14,Weather logger V3.0.,2017-05-23 14:45:00,
2017-05-23 10:50:00,68.0,49.8,29.88,NNE,24,0.2,2.5,52,0.00,,,0.00,217.89,Weather logger V3.0.,2017-05-23 14:50:00,
2017-05-23 10:55:00,68.0,50.4,29.87,NNE,21,1.8,2.5,53,0.00,,,0.00,476.62,Weather logger V3.0.,2017-05-23 14:55:00,
2017-05-23 11:00:00,68.2,50.9,29.86,SSW,204,0.2,2.5,54,0.00,,,0.00,501.37,Weather logger V3.0.,2017-05-23 15:00:00,
2017-05-23 11:05:00,68.4,49.6,29.86,ESE,122,0.9,2.5,51,0.00,,,0.00,504.24,Weather logger V3.0.,2017-05-23 15:05:00,
2017-05-23 11:10:00,68.9,50.5,29.86,SE,124,0.0,0.0,52,0.00,,,0.00,498.74,Weather logger V3.0.,2017-05-23 15:10:00,
2017-05-23 11:15:00,69.3,49.8,29.85,ESE,115,1.1,2.5,50,0.00,,,0.00,494.06,Weather logger V3.0.,2017-05-23 15:15:00,
2017-05-23 11:20:00,69.6,50.2,29.85,South,184,1.1,2.5,50,0.00,,,0.00,499.32,Weather logger V3.0.,2017-05-23 15:20:00,
2017-05-23 11:25:00,70.0,50.5,29.85,SSE,160,0.9,2.5,50,0.00,,,0.00,515.65,Weather logger V3.0.,2017-05-23 15:25:00,
2017-05-23 11:30:00,70.3,50.4,29.87,South,177,0.2,2.5,49,0.00,,,0.00,518.24,Weather logger V3.0.,2017-05-23 15:30:00,
2017-05-23 11:35:00,70.7,50.2,29.85,South,185,0.0,0.0,48,0.00,,,0.00,527.19,Weather logger V3.0.,2017-05-23 15:35:00,
2017-05-23 11:40:00,70.7,51.3,29.85,ESE,118,1.3,2.5,50,0.00,,,0.00,506.83,Weather logger V3.0.,2017-05-23 15:40:00,
2017-05-23 11:46:00,70.5,51.1,29.85,SE,139,0.0,0.0,50,0.00,,,0.00,513.68,Weather logger V3.0.,2017-05-23 15:46:00,
2017-05-23 11:51:00,70.5,50.5,29.84,SSE,168,0.9,2.5,49,0.00,,,0.00,525.05,Weather logger V3.0.,2017-05-23 15:51:00,
2017-05-23 11:56:00,70.5,51.1,29.85,SE,139,1.3,2.5,50,0.00,,,0.00,521.19,Weather logger V3.0.,2017-05-23 15:56:00,
2017-05-23 12:01:00,70.5,51.1,29.84,NE,44,0.9,2.5,50,0.00,,,0.00,552.84,Weather logger V3.0.,2017-05-23 16:01:00,
2017-05-23 12:06:00,70.7,50.2,29.84,ESE,104,0.0,0.0,48,0.00,,,0.00,500.47,Weather logger V3.0.,2017-05-23 16:06:00,
2017-05-23 12:11:00,70.9,52.0,29.84,ENE,60,0.2,2.5,51,0.00,,,0.00,508.72,Weather logger V3.0.,2017-05-23 16:11:00,
2017-05-23 12:16:00,71.2,49.5,29.84,ESE,114,0.9,2.5,46,0.00,,,0.00,542.95,Weather logger V3.0.,2017-05-23 16:16:00,
2017-05-23 12:21:00,71.4,50.7,29.84,South,174,0.0,0.0,48,0.00,,,0.00,641.90,Weather logger V3.0.,2017-05-23 16:21:00,
2017-05-23 12:26:00,72.0,52.9,29.84,East,97,0.0,0.0,51,0.00,,,0.00,553.94,Weather logger V3.0.,2017-05-23 16:26:00,
2017-05-23 12:31:00,72.3,48.6,29.83,East,81,0.0,0.0,43,0.00,,,0.00,586.41,Weather logger V3.0.,2017-05-23 16:31:00,
2017-05-23 12:36:00,72.3,52.2,29.82,North,3,2.7,4.9,49,0.00,,,0.00,532.69,Weather logger V3.0.,2017-05-23 16:36:00,
2017-05-23 12:41:00,72.3,52.2,29.83,NE,39,2.0,2.5,49,0.00,,,0.00,510.69,Weather logger V3.0.,2017-05-23 16:41:00,
2017-05-23 12:46:00,72.3,52.2,29.81,North,10,2.0,2.5,49,0.00,,,0.00,582.76,Weather logger V3.0.,2017-05-23 16:46:00,
2017-05-23 12:51:00,72.3,49.3,29.82,East,97,0.9,2.5,44,0.00,,,0.00,658.44,Weather logger V3.0.,2017-05-23 16:51:00,
2017-05-23 12:56:00,72.1,50.9,29.82,ESE,117,0.0,0.0,47,0.00,,,0.00,669.27,Weather logger V3.0.,2017-05-23 16:56:00,
2017-05-23 13:02:00,72.0,51.3,29.82,NNE,20,4.2,4.9,48,0.00,,,0.00,378.08,Weather logger V3.0.,2017-05-23 17:02:00,
2017-05-23 13:12:00,72.1,47.1,29.81,SE,128,0.0,0.0,41,0.00,,,0.00,309.99,Weather logger V3.0.,2017-05-23 17:12:00,
2017-05-23 13:17:00,72.5,48.7,29.81,ESE,122,0.2,2.5,43,0.00,,,0.00,617.35,Weather logger V3.0.,2017-05-23 17:17:00,
2017-05-23 13:22:00,73.0,48.0,29.80,NE,37,0.0,0.0,41,0.00,,,0.00,691.31,Weather logger V3.0.,2017-05-23 17:22:00,
2017-05-23 13:27:00,73.4,48.4,29.80,ESE,102,0.9,2.5,41,0.00,,,0.00,598.39,Weather logger V3.0.,2017-05-23 17:27:00,
2017-05-23 13:32:00,73.9,48.7,29.80,SSE,150,0.0,0.0,41,0.00,,,0.00,510.73,Weather logger V3.0.,2017-05-23 17:32:00,
2017-05-23 13:37:00,74.7,48.7,29.80,East,89,0.0,0.0,40,0.00,,,0.00,508.63,Weather logger V3.0.,2017-05-23 17:37:00,
2017-05-23 13:42:00,75.0,49.1,29.79,NNE,33,2.9,4.9,40,0.00,,,0.00,482.66,Weather logger V3.0.,2017-05-23 17:42:00,
2017-05-23 13:47:00,75.2,51.3,29.79,SE,140,0.0,0.0,43,0.00,,,0.00,434.80,Weather logger V3.0.,2017-05-23 17:47:00,
2017-05-23 13:52:00,75.0,50.4,29.79,SSE,147,0.0,0.0,42,0.00,,,0.00,472.76,Weather logger V3.0.,2017-05-23 17:52:00,
2017-05-23 13:57:00,75.0,50.4,29.79,North,349,3.6,4.9,42,0.00,,,0.00,425.16,Weather logger V3.0.,2017-05-23 17:57:00,
2017-05-23 14:02:00,74.7,53.2,29.78,SSE,148,1.1,2.5,47,0.00,,,0.00,434.31,Weather logger V3.0.,2017-05-23 18:02:00,
2017-05-23 14:07:00,74.7,50.7,29.79,NNE,30,0.0,0.0,43,0.00,,,0.00,396.06,Weather logger V3.0.,2017-05-23 18:07:00,
2017-05-23 14:12:00,74.5,51.8,29.78,ENE,73,1.1,2.5,45,0.00,,,0.00,535.02,Weather logger V3.0.,2017-05-23 18:12:00,
2017-05-23 14:18:00,74.7,49.5,29.78,SE,125,0.9,2.5,41,0.00,,,0.00,559.98,Weather logger V3.0.,2017-05-23 18:18:00,
2017-05-23 14:23:00,74.7,50.2,29.77,East,97,1.8,2.5,42,0.00,,,0.00,605.90,Weather logger V3.0.,2017-05-23 18:23:00,
2017-05-23 14:28:00,74.5,50.0,29.77,ESE,111,0.2,2.5,42,0.00,,,0.00,718.56,Weather logger V3.0.,2017-05-23 18:28:00,
2017-05-23 14:33:00,74.8,51.4,29.77,East,87,4.2,4.9,44,0.00,,,0.00,359.57,Weather logger V3.0.,2017-05-23 18:33:00,
2017-05-23 14:38:00,74.7,50.7,29.77,ESE,103,0.0,0.0,43,0.00,,,0.00,649.53,Weather logger V3.0.,2017-05-23 18:38:00,
2017-05-23 14:43:00,74.8,52.7,29.76,NE,39,0.2,2.5,46,0.00,,,0.00,679.29,Weather logger V3.0.,2017-05-23 18:43:00,
2017-05-23 14:48:00,74.8,50.2,29.76,ENE,74,0.0,0.0,42,0.00,,,0.00,594.74,Weather logger V3.0.,2017-05-23 18:48:00,